Search for airport 
image banner adimage banner adimage banner ad
image banner ad

KAMW - Ames Muni

Located in Ames, United States

ICAO - AMW, IATA - AMW

Data provided by Airmate  

General information

Coordinates: N41°59'31" W93°37'19"
Elevation is 956 feet MSL.
Magnetic variation is 03° East
View others Airports in Iowa

Operational data

Special qualification required
Current time UTC:
Current local time:
Weather
METAR: KAMW 181753Z AUTO 00000KT 10SM CLR 29/15 A2986 RMK AO2 SLP100 T02890150 10300 20233 51018
View NOTAMs / SUP AIP / TFR affecting this airport [VIEW]
Communications frequencies: [VIEW]

Runways:

RWY identifierQFULength (ft)Width (ft)SurfaceLDA (ft)
0117°5701100ASPH
19197°5701100ASPH
13136°349175CONC
31316°349175CONC

Airport contact information

Address: Ames United States

Other aviation service providers

Flight schools

Central Iowa Air Service

Central Iowa Air Service

Haps

Haps
cholden@hapsair.com+1(515)232-4310

Satellite view of KAMW